createdAt,value
2018-02-15T00:02:21.520Z,54.92
2018-02-15T00:04:49.083Z,58.25
2018-02-15T00:07:16.677Z,54.90
2018-02-15T00:09:44.295Z,58.38
2018-02-15T00:12:11.889Z,49.47
2018-02-15T00:14:39.440Z,60.50
2018-02-15T00:17:07.041Z,53.67
2018-02-15T00:19:35.400Z,52.28
2018-02-15T00:22:02.976Z,53.55
2018-02-15T00:24:31.345Z,48.03
2018-02-15T00:26:58.995Z,52.33
2018-02-15T00:29:26.563Z,55.72
2018-02-15T00:31:54.112Z,42.40
2018-02-15T00:34:21.713Z,56.92
2018-02-15T00:36:50.042Z,63.53
2018-02-15T00:39:17.628Z,52.65
2018-02-15T00:41:45.177Z,46.58
2018-02-15T00:44:12.772Z,52.22
2018-02-15T00:46:41.118Z,56.10
2018-02-15T00:49:08.711Z,54.97
2018-02-15T00:51:36.268Z,52.33
2018-02-15T00:54:04.615Z,52.75
2018-02-15T00:56:32.160Z,54.05
2018-02-15T00:58:59.765Z,54.65
2018-02-15T01:01:30.148Z,61.15
2018-02-15T01:03:57.736Z,49.53
2018-02-15T01:06:25.295Z,62.55
2018-02-15T01:08:52.894Z,51.70
2018-02-15T01:11:21.260Z,49.17
2018-02-15T01:13:49.584Z,51.67
2018-02-15T01:16:17.176Z,58.30
2018-02-15T01:18:44.736Z,52.00
2018-02-15T01:21:12.336Z,61.70
2018-02-15T01:23:40.688Z,49.22
2018-02-15T01:26:08.232Z,53.15
2018-02-15T01:28:35.823Z,59.63
2018-02-15T01:31:04.142Z,54.08
2018-02-15T01:33:31.735Z,52.22
2018-02-15T01:35:59.287Z,52.28
2018-02-15T01:38:26.904Z,58.28
2018-02-15T01:40:54.506Z,48.42
2018-02-15T01:43:22.094Z,47.65
2018-02-15T01:45:49.682Z,50.22
2018-02-15T01:48:17.996Z,55.33
2018-02-15T01:50:45.560Z,47.15
2018-02-15T01:53:13.148Z,52.70
2018-02-15T01:55:40.706Z,50.60
2018-02-15T01:58:08.312Z,51.20
2018-02-15T02:00:35.890Z,57.62
2018-02-15T02:03:03.484Z,52.55
2018-02-15T02:05:31.049Z,53.25
2018-02-15T02:07:58.672Z,52.17
2018-02-15T02:10:26.279Z,58.17
2018-02-15T02:12:56.972Z,55.35
2018-02-15T02:15:26.777Z,53.15
2018-02-15T02:17:56.460Z,49.80
2018-02-15T02:20:28.592Z,48.05
2018-02-15T02:22:59.835Z,50.40
2018-02-15T02:25:31.139Z,42.00
2018-02-15T02:28:02.009Z,43.40
2018-02-15T02:30:31.842Z,44.40
2018-02-15T02:33:02.770Z,45.28
2018-02-15T02:35:32.361Z,44.85
2018-02-15T02:38:02.289Z,48.65
2018-02-15T02:40:32.816Z,48.45
2018-02-15T02:43:02.653Z,39.88
2018-02-15T02:45:33.887Z,46.58
2018-02-15T02:48:03.722Z,48.03
2018-02-15T02:50:34.315Z,41.45
2018-02-15T02:53:04.996Z,42.67
2018-02-15T02:55:35.409Z,46.72
2018-02-15T02:58:05.102Z,38.72
2018-02-15T03:00:35.889Z,40.12
2018-02-15T03:03:05.726Z,39.08
2018-02-15T03:05:35.348Z,32.65
2018-02-15T03:08:05.812Z,32.30
2018-02-15T03:10:35.619Z,44.75
2018-02-15T03:13:05.302Z,34.72
2018-02-15T03:15:35.937Z,32.63
2018-02-15T03:18:06.310Z,28.38
2018-02-15T03:20:35.803Z,29.25
2018-02-15T03:23:04.732Z,25.12
2018-02-15T03:25:33.767Z,24.83
2018-02-15T03:28:03.368Z,27.98
2018-02-15T03:30:33.130Z,25.30
2018-02-15T03:33:04.440Z,30.05
2018-02-15T03:35:34.239Z,31.60
2018-02-15T03:38:03.876Z,24.27
2018-02-15T03:40:34.514Z,24.00
2018-02-15T03:43:04.868Z,26.92
2018-02-15T03:45:35.488Z,23.35
2018-02-15T03:48:06.160Z,29.15
2018-02-15T03:50:37.060Z,31.15
2018-02-15T03:53:07.608Z,30.85
2018-02-15T03:55:37.160Z,29.42
2018-02-15T03:58:08.397Z,37.55
2018-02-15T04:00:38.046Z,26.55
2018-02-15T04:03:09.421Z,36.22
2018-02-15T04:05:39.047Z,37.05
2018-02-15T04:08:08.627Z,39.47
2018-02-15T04:10:39.241Z,44.05
2018-02-15T04:13:08.853Z,40.92
2018-02-15T04:15:39.421Z,39.35
2018-02-15T04:18:09.115Z,48.00
2018-02-15T04:20:38.677Z,47.53
2018-02-15T04:23:08.279Z,45.58
2018-02-15T04:25:38.035Z,48.40
2018-02-15T04:28:07.892Z,55.10
2018-02-15T04:30:37.848Z,49.03
2018-02-15T04:33:07.536Z,52.70
2018-02-15T04:35:37.934Z,50.10
2018-02-15T04:38:07.820Z,51.15
2018-02-15T04:40:37.315Z,57.30
2018-02-15T04:43:07.077Z,53.42
2018-02-15T04:45:37.368Z,51.65
2018-02-15T04:48:08.735Z,55.97
2018-02-15T04:50:38.186Z,80.82
2018-02-15T04:53:07.817Z,51.28
2018-02-15T04:55:38.333Z,67.25
2018-02-15T04:58:08.505Z,47.42
2018-02-15T05:00:38.063Z,60.63
2018-02-15T05:03:07.136Z,56.28
2018-02-15T05:05:36.512Z,55.08
2018-02-15T05:08:06.010Z,55.22
2018-02-15T05:10:34.434Z,49.95
2018-02-15T05:13:04.097Z,50.33
2018-02-15T05:15:33.595Z,52.17
2018-02-15T05:18:04.651Z,66.57
2018-02-15T05:20:34.216Z,54.25
2018-02-15T05:23:04.537Z,58.03
2018-02-15T05:25:33.276Z,53.35
2018-02-15T05:28:02.560Z,57.42
2018-02-15T05:30:31.784Z,51.05
2018-02-15T05:32:59.356Z,56.80
2018-02-15T05:35:26.954Z,60.63
2018-02-15T05:37:54.542Z,55.92
2018-02-15T05:40:22.199Z,50.10
2018-02-15T05:42:50.552Z,63.28
2018-02-15T05:45:18.159Z,51.67
2018-02-15T05:47:45.736Z,51.47
2018-02-15T05:50:13.317Z,37.75
2018-02-15T05:52:40.901Z,40.33
2018-02-15T05:55:08.514Z,28.62
2018-02-15T05:57:36.110Z,47.67
2018-02-15T06:00:03.681Z,34.03
2018-02-15T06:02:31.274Z,41.22
2018-02-15T06:04:59.620Z,29.30
2018-02-15T06:07:27.212Z,42.60
2018-02-15T06:09:55.534Z,32.63
2018-02-15T06:12:23.126Z,31.98
2018-02-15T06:14:50.679Z,26.77
2018-02-15T06:17:18.273Z,25.40
2018-02-15T06:19:46.588Z,31.35
2018-02-15T06:22:14.189Z,19.85
2018-02-15T06:24:41.739Z,25.52
2018-02-15T06:27:09.316Z,16.85
2018-02-15T06:29:37.679Z,16.08
2018-02-15T06:32:05.243Z,22.33
2018-02-15T06:34:32.847Z,18.95
2018-02-15T06:37:00.495Z,19.52
2018-02-15T06:39:28.872Z,16.12
2018-02-15T06:41:57.216Z,16.02
2018-02-15T06:44:24.812Z,19.67
2018-02-15T06:46:53.177Z,26.30
2018-02-15T06:49:20.856Z,26.98
2018-02-15T06:51:49.235Z,22.60
2018-02-15T06:54:16.862Z,14.75
2018-02-15T06:56:44.423Z,19.98
2018-02-15T06:59:12.025Z,19.15
2018-02-15T07:01:40.416Z,34.72
2018-02-15T07:04:08.041Z,20.80
2018-02-15T07:06:37.402Z,33.83
2018-02-15T07:09:05.022Z,28.75
2018-02-15T07:11:33.402Z,32.05
2018-02-15T07:14:01.726Z,13.88
2018-02-15T07:16:29.325Z,27.80
2018-02-15T07:18:56.923Z,32.30
2018-02-15T07:21:24.485Z,30.58
2018-02-15T07:23:52.102Z,44.35
2018-02-15T07:26:23.619Z,25.23
2018-02-15T07:28:52.026Z,21.20
2018-02-15T07:31:19.584Z,20.23
2018-02-15T07:33:47.497Z,18.95
2018-02-15T07:36:15.192Z,32.97
2018-02-15T07:38:42.859Z,22.05
2018-02-15T07:41:10.425Z,18.35
2018-02-15T07:43:38.029Z,34.60
2018-02-15T07:46:06.380Z,32.10
2018-02-15T07:48:33.992Z,14.00
2018-02-15T07:51:01.556Z,10.60
2018-02-15T07:53:29.191Z,24.65
2018-02-15T07:55:57.579Z,17.35
2018-02-15T07:58:26.092Z,18.45
2018-02-15T08:00:53.720Z,28.48
2018-02-15T08:03:22.069Z,39.13
2018-02-15T08:05:49.677Z,13.38
2018-02-15T08:08:18.062Z,13.88
2018-02-15T08:10:45.697Z,13.88
2018-02-15T08:13:14.042Z,18.62
2018-02-15T08:15:43.831Z,16.87
2018-02-15T08:18:11.635Z,13.15
2018-02-15T08:20:39.299Z,26.65
2018-02-15T08:23:06.839Z,11.38
2018-02-15T08:25:34.437Z,14.23
2018-02-15T08:28:01.996Z,15.35
2018-02-15T08:30:29.564Z,18.83
2018-02-15T08:32:57.227Z,17.80
2018-02-15T08:35:26.284Z,12.50
2018-02-15T08:37:55.281Z,12.35
2018-02-15T08:40:22.879Z,17.15
2018-02-15T08:42:51.228Z,13.02
2018-02-15T08:45:18.813Z,18.58
2018-02-15T08:47:47.132Z,22.80
2018-02-15T08:50:14.747Z,20.45
2018-02-15T08:52:42.347Z,14.45
2018-02-15T08:55:09.911Z,26.25
2018-02-15T08:57:37.472Z,13.82
2018-02-15T09:00:05.220Z,14.27
2018-02-15T09:02:33.547Z,10.88
2018-02-15T09:05:01.139Z,17.58
2018-02-15T09:07:28.686Z,13.60
2018-02-15T09:09:56.255Z,21.37
2018-02-15T09:12:23.876Z,9.63
2018-02-15T09:14:51.461Z,17.40
2018-02-15T09:17:19.024Z,14.52
2018-02-15T09:19:46.653Z,16.00
2018-02-15T09:22:14.227Z,15.05
2018-02-15T09:24:41.786Z,12.63
2018-02-15T09:27:09.399Z,13.70
2018-02-15T09:29:37.733Z,17.55
2018-02-15T09:32:05.317Z,14.50
2018-02-15T09:34:32.884Z,13.90
2018-02-15T09:37:00.572Z,15.63
2018-02-15T09:39:28.188Z,16.98
2018-02-15T09:41:55.794Z,10.88
2018-02-15T09:44:24.228Z,17.95
2018-02-15T09:46:51.939Z,15.30
2018-02-15T09:49:20.262Z,17.60
2018-02-15T09:51:47.851Z,13.55
2018-02-15T09:54:15.431Z,11.95
2018-02-15T09:56:44.034Z,12.95
2018-02-15T09:59:11.644Z,15.52
2018-02-15T10:01:39.184Z,10.23
2018-02-15T10:04:06.773Z,15.48
2018-02-15T10:06:34.324Z,19.85
2018-02-15T10:09:01.912Z,15.20
2018-02-15T10:11:30.341Z,16.58
2018-02-15T10:13:57.946Z,13.70
2018-02-15T10:16:25.566Z,11.05
2018-02-15T10:18:53.203Z,12.18
2018-02-15T10:21:21.529Z,20.52
2018-02-15T10:23:49.147Z,12.18
2018-02-15T10:26:17.470Z,16.10
2018-02-15T10:28:45.053Z,9.82
2018-02-15T10:31:12.648Z,14.93
2018-02-15T10:33:40.419Z,22.65
2018-02-15T10:36:07.975Z,12.98
2018-02-15T10:38:36.361Z,11.45
2018-02-15T10:41:03.956Z,14.65
2018-02-15T10:43:31.572Z,11.50
2018-02-15T10:45:59.956Z,13.32
2018-02-15T10:48:28.277Z,13.43
2018-02-15T10:50:55.873Z,19.65
2018-02-15T10:53:24.294Z,18.85
2018-02-15T10:55:51.934Z,16.23
2018-02-15T10:58:20.275Z,15.07
2018-02-15T11:00:53.355Z,16.27
2018-02-15T11:03:26.614Z,15.65
2018-02-15T11:06:04.637Z,12.75
2018-02-15T11:08:33.376Z,18.62
2018-02-15T11:11:01.765Z,19.73
2018-02-15T11:13:30.140Z,15.07
2018-02-15T11:15:58.468Z,18.87
2018-02-15T11:18:26.028Z,14.43
2018-02-15T11:23:37.186Z,18.40
2018-02-15T11:26:04.798Z,15.20
2018-02-15T11:28:32.356Z,15.70
2018-02-15T11:31:00.074Z,16.73
2018-02-15T11:33:28.570Z,19.50
2018-02-15T11:35:56.305Z,20.73
2018-02-15T11:38:24.030Z,19.02
2018-02-15T11:40:51.779Z,19.77
2018-02-15T11:43:20.171Z,17.83
2018-02-15T11:45:47.778Z,22.70
2018-02-15T11:48:15.412Z,16.80
2018-02-15T11:50:43.008Z,18.75
2018-02-15T11:53:10.633Z,24.63
2018-02-15T11:55:38.283Z,16.25
2018-02-15T11:58:05.946Z,25.23
2018-02-15T12:00:33.605Z,17.27
2018-02-15T12:03:01.204Z,19.58
2018-02-15T12:05:28.792Z,21.90
2018-02-15T12:07:57.233Z,31.37
2018-02-15T12:10:24.957Z,33.55
2018-02-15T12:12:52.533Z,19.85
2018-02-15T12:15:20.179Z,21.10
2018-02-15T12:17:47.990Z,18.73
2018-02-15T12:20:15.602Z,17.33
2018-02-15T12:22:44.006Z,18.85
2018-02-15T12:25:11.606Z,21.48
2018-02-15T12:27:39.266Z,21.33
2018-02-15T12:30:06.880Z,21.20
2018-02-15T12:32:34.493Z,17.87
2018-02-15T12:35:02.293Z,22.85
2018-02-15T12:37:29.890Z,40.80
2018-02-15T12:39:57.483Z,23.90
2018-02-15T12:42:25.218Z,27.98
2018-02-15T12:44:53.182Z,22.00
2018-02-15T12:47:20.926Z,24.08
2018-02-15T12:49:49.041Z,21.60
2018-02-15T12:52:16.793Z,18.10
2018-02-15T12:54:44.765Z,24.73
2018-02-15T12:57:12.456Z,25.42
2018-02-15T12:59:40.136Z,26.27
2018-02-15T13:02:07.868Z,23.75
2018-02-15T13:04:36.293Z,22.02
2018-02-15T13:07:04.947Z,20.73
2018-02-15T13:09:33.396Z,23.62
2018-02-15T13:12:00.979Z,23.12
2018-02-15T13:14:28.892Z,23.90
2018-02-15T13:16:59.452Z,24.12
2018-02-15T13:19:39.053Z,19.33
2018-02-15T13:22:19.200Z,24.58
2018-02-15T13:24:46.843Z,28.05
2018-02-15T13:27:14.472Z,25.33
2018-02-15T13:29:42.175Z,22.70
2018-02-15T13:32:10.272Z,23.75
2018-02-15T13:34:37.910Z,19.10
2018-02-15T13:37:05.528Z,38.55
2018-02-15T13:39:33.298Z,25.85
2018-02-15T13:42:01.276Z,26.48
2018-02-15T13:44:29.879Z,23.00
2018-02-15T13:46:57.444Z,27.40
2018-02-15T13:49:25.053Z,32.13
2018-02-15T13:51:52.646Z,23.73
2018-02-15T13:54:20.242Z,36.78
2018-02-15T13:56:48.729Z,22.83
2018-02-15T13:59:16.347Z,19.65
2018-02-15T14:01:44.286Z,31.58
2018-02-15T14:04:11.945Z,27.83
2018-02-15T14:06:40.364Z,23.90
2018-02-15T14:09:08.016Z,23.38
2018-02-15T14:11:35.644Z,25.73
2018-02-15T14:14:03.984Z,21.48
2018-02-15T14:16:31.597Z,26.08
2018-02-15T14:18:59.218Z,30.67
2018-02-15T14:21:26.865Z,28.52
2018-02-15T14:23:54.560Z,33.08
2018-02-15T14:26:22.936Z,28.45
2018-02-15T14:28:50.828Z,33.40
2018-02-15T14:31:18.477Z,28.92
2018-02-15T14:33:46.056Z,30.80
2018-02-15T14:36:36.298Z,33.05
2018-02-15T14:39:03.863Z,23.75
2018-02-15T14:41:31.529Z,25.80
2018-02-15T14:43:59.141Z,26.52
2018-02-15T14:46:27.828Z,26.90
2018-02-15T14:48:55.451Z,29.12
2018-02-15T14:51:23.036Z,31.12
2018-02-15T14:53:51.418Z,31.92
2018-02-15T14:56:19.060Z,26.98
2018-02-15T14:58:47.484Z,26.85
2018-02-15T15:01:15.084Z,33.65
2018-02-15T15:03:42.712Z,25.35
2018-02-15T15:06:10.425Z,29.05
2018-02-15T15:08:38.885Z,28.12
2018-02-15T15:11:06.496Z,28.55
2018-02-15T15:13:34.059Z,31.87
2018-02-15T15:16:01.744Z,32.47
2018-02-15T15:18:29.514Z,33.30
2018-02-15T15:20:57.109Z,31.00
2018-02-15T15:23:25.470Z,32.08
2018-02-15T15:25:53.304Z,36.85
2018-02-15T15:28:20.920Z,30.12
2018-02-15T15:30:48.658Z,31.08
2018-02-15T15:33:17.081Z,32.55
2018-02-15T15:35:56.216Z,27.60
2018-02-15T15:38:24.442Z,40.45
2018-02-15T15:40:52.024Z,33.50
2018-02-15T15:43:19.682Z,46.88
2018-02-15T15:45:47.269Z,33.95
2018-02-15T15:48:14.915Z,33.42
2018-02-15T15:50:42.461Z,46.70
2018-02-15T15:53:10.792Z,31.05
2018-02-15T15:55:38.435Z,39.97
2018-02-15T15:58:06.776Z,27.85
2018-02-15T16:00:34.384Z,23.35
2018-02-15T16:03:01.955Z,30.67
2018-02-15T16:05:30.369Z,25.25
2018-02-15T16:07:57.977Z,36.70
2018-02-15T16:10:26.418Z,27.45
2018-02-15T16:12:54.040Z,36.50
2018-02-15T16:15:21.661Z,31.12
2018-02-15T16:17:49.363Z,28.60
2018-02-15T16:20:17.006Z,35.58
2018-02-15T16:22:45.357Z,27.35
2018-02-15T16:25:12.983Z,26.60
2018-02-15T16:27:40.820Z,27.05
2018-02-15T16:30:11.311Z,29.33
2018-02-15T16:32:38.927Z,32.05
2018-02-15T16:35:06.736Z,37.97
2018-02-15T16:37:34.303Z,35.05
2018-02-15T16:40:01.892Z,37.55
2018-02-15T16:42:30.371Z,28.25
2018-02-15T16:44:58.710Z,31.85
2018-02-15T16:47:26.330Z,32.05
2018-02-15T16:49:54.732Z,32.03
2018-02-15T16:52:22.340Z,26.27
2018-02-15T16:54:49.910Z,35.78
2018-02-15T16:57:17.536Z,33.72
2018-02-15T16:59:45.097Z,42.65
2018-02-15T17:02:12.932Z,35.83
2018-02-15T17:04:40.553Z,33.60
2018-02-15T17:07:08.136Z,28.87
2018-02-15T17:09:35.857Z,32.08
2018-02-15T17:12:03.458Z,33.63
2018-02-15T17:14:31.108Z,34.65
2018-02-15T17:16:59.446Z,34.25
2018-02-15T17:19:27.092Z,33.45
2018-02-15T17:21:54.689Z,36.90
2018-02-15T17:24:22.276Z,29.40
2018-02-15T17:26:50.687Z,31.00
2018-02-15T17:29:18.300Z,35.90
2018-02-15T17:31:45.901Z,34.28
2018-02-15T17:34:13.489Z,38.80
2018-02-15T17:36:41.081Z,31.05
2018-02-15T17:39:08.708Z,34.70
2018-02-15T17:41:36.286Z,32.53
2018-02-15T17:44:03.891Z,31.00
2018-02-15T17:46:31.595Z,41.50
2018-02-15T17:48:59.431Z,36.85
2018-02-15T17:51:27.014Z,37.92
2018-02-15T17:53:54.589Z,31.83
2018-02-15T17:56:22.181Z,40.42
2018-02-15T17:58:49.789Z,33.80
2018-02-15T18:01:17.404Z,32.47
2018-02-15T18:03:46.556Z,31.08
2018-02-15T18:06:14.120Z,35.92
2018-02-15T18:08:41.719Z,30.05
2018-02-15T18:11:09.330Z,34.17
2018-02-15T18:13:36.899Z,38.30
2018-02-15T18:16:04.522Z,36.85
2018-02-15T18:18:32.913Z,31.52
2018-02-15T18:21:01.296Z,34.65
2018-02-15T18:23:29.637Z,34.38
2018-02-15T18:25:57.227Z,40.47
2018-02-15T18:28:24.850Z,42.20
2018-02-15T18:30:52.409Z,47.58
2018-02-15T18:33:20.022Z,41.55
2018-02-15T18:35:47.633Z,39.65
2018-02-15T18:38:15.207Z,41.55
2018-02-15T18:40:42.814Z,46.58
2018-02-15T18:43:10.412Z,51.25
2018-02-15T18:45:37.985Z,45.17
2018-02-15T18:48:05.563Z,46.03
2018-02-15T18:50:33.939Z,44.88
2018-02-15T18:53:01.556Z,51.60
2018-02-15T18:55:29.148Z,43.25
2018-02-15T18:57:56.757Z,46.97
2018-02-15T19:00:24.325Z,44.95
2018-02-15T19:02:51.958Z,42.05
2018-02-15T19:05:20.310Z,39.80
2018-02-15T19:07:47.921Z,40.22
2018-02-15T19:10:15.498Z,43.80
2018-02-15T19:12:43.074Z,43.70
2018-02-15T19:15:10.673Z,45.30
2018-02-15T19:17:39.014Z,51.13
2018-02-15T19:20:06.638Z,48.53
2018-02-15T19:22:34.199Z,46.28
2018-02-15T19:25:01.799Z,51.22
2018-02-15T19:27:29.466Z,46.05
2018-02-15T19:29:57.086Z,52.62
2018-02-15T19:32:24.700Z,48.70
2018-02-15T19:34:52.286Z,51.67
2018-02-15T19:37:20.792Z,47.62
2018-02-15T19:39:48.386Z,51.70
2018-02-15T19:42:15.990Z,53.50
2018-02-15T19:44:44.327Z,58.97
2018-02-15T19:47:11.949Z,56.40
2018-02-15T19:49:40.294Z,57.35
2018-02-15T19:52:07.881Z,58.13
2018-02-15T19:54:36.269Z,49.67
2018-02-15T19:57:03.869Z,56.15
2018-02-15T19:59:31.450Z,57.60
2018-02-15T20:02:01.180Z,50.95
2018-02-15T20:04:28.763Z,59.78
2018-02-15T20:06:56.373Z,56.08
2018-02-15T20:09:23.962Z,51.55
2018-02-15T20:11:52.297Z,48.80
2018-02-15T20:14:19.906Z,46.33
2018-02-15T20:16:48.251Z,50.20
2018-02-15T20:19:15.859Z,65.00
2018-02-15T20:21:43.427Z,49.92
2018-02-15T20:24:11.064Z,46.97
2018-02-15T20:26:45.187Z,45.30
2018-02-15T20:29:13.530Z,55.97
2018-02-15T20:31:41.088Z,63.80
2018-02-15T20:34:08.705Z,49.42
2018-02-15T20:36:36.330Z,50.92
2018-02-15T20:39:09.624Z,44.45
2018-02-15T20:41:37.234Z,56.85
2018-02-15T20:44:04.844Z,52.97
2018-02-15T20:46:32.475Z,52.00
2018-02-15T20:49:00.056Z,50.38
2018-02-15T20:51:33.369Z,57.65
2018-02-15T20:54:06.557Z,52.83
2018-02-15T20:56:34.168Z,56.85
2018-02-15T20:59:01.775Z,57.90
2018-02-15T21:01:31.434Z,60.33
2018-02-15T21:03:59.038Z,55.08
2018-02-15T21:06:26.606Z,59.42
2018-02-15T21:08:54.223Z,58.38
2018-02-15T21:11:21.812Z,53.63
2018-02-15T21:13:49.386Z,61.22
2018-02-15T21:16:17.004Z,54.67
2018-02-15T21:18:44.605Z,54.80
2018-02-15T21:21:12.169Z,53.60
2018-02-15T21:23:39.725Z,55.75
2018-02-15T21:26:07.366Z,57.03
2018-02-15T21:28:34.947Z,51.72
2018-02-15T21:31:02.523Z,53.33
2018-02-15T21:33:30.128Z,63.67
2018-02-15T21:35:57.688Z,64.85
2018-02-15T21:38:25.296Z,58.70
2018-02-15T21:40:52.883Z,56.45
2018-02-15T21:43:21.270Z,56.65
2018-02-15T21:45:48.836Z,57.00
2018-02-15T21:48:16.445Z,52.33
2018-02-15T21:50:44.010Z,47.72
2018-02-15T21:53:11.624Z,65.20
2018-02-15T21:55:39.232Z,47.65
2018-02-15T21:58:06.811Z,56.37
2018-02-15T22:00:34.434Z,48.60
2018-02-15T22:03:02.005Z,57.65
2018-02-15T22:05:29.583Z,53.83
2018-02-15T22:07:57.195Z,58.65
2018-02-15T22:10:24.773Z,54.03
2018-02-15T22:12:52.352Z,53.28
2018-02-15T22:15:19.947Z,52.92
2018-02-15T22:17:48.340Z,52.47
2018-02-15T22:20:16.714Z,60.83
2018-02-15T22:22:45.127Z,58.78
2018-02-15T22:25:12.690Z,54.40
2018-02-15T22:27:40.337Z,59.25
2018-02-15T22:30:07.904Z,59.60
2018-02-15T22:32:35.528Z,53.08
2018-02-15T22:35:03.900Z,55.78
2018-02-15T22:37:31.484Z,61.60
2018-02-15T22:39:59.850Z,56.28
2018-02-15T22:42:28.205Z,58.92
2018-02-15T22:44:55.852Z,54.08
2018-02-15T22:47:23.428Z,59.85
2018-02-15T22:49:51.049Z,70.45
2018-02-15T22:52:18.661Z,59.63
2018-02-15T22:54:46.218Z,58.45
2018-02-15T22:57:13.854Z,50.65
2018-02-15T22:59:41.483Z,57.22
2018-02-15T23:02:09.065Z,58.55
2018-02-15T23:04:36.693Z,52.85
2018-02-15T23:07:05.042Z,59.40
2018-02-15T23:09:32.652Z,55.20
2018-02-15T23:12:00.259Z,61.28
2018-02-15T23:14:27.877Z,46.78
2018-02-15T23:16:55.438Z,59.15
2018-02-15T23:19:23.059Z,59.58
2018-02-15T23:21:50.643Z,60.03
2018-02-15T23:24:19.001Z,60.88
2018-02-15T23:26:46.619Z,64.90
2018-02-15T23:29:14.230Z,61.10
2018-02-15T23:31:42.610Z,54.58
2018-02-15T23:34:10.945Z,60.20
2018-02-15T23:36:38.580Z,60.03
2018-02-15T23:39:06.165Z,60.20
2018-02-15T23:41:33.772Z,56.10
2018-02-15T23:44:02.137Z,55.83
2018-02-15T23:46:29.744Z,66.43
2018-02-15T23:48:57.301Z,55.80
2018-02-15T23:51:24.917Z,51.17
2018-02-15T23:53:52.481Z,53.00
2018-02-15T23:56:20.075Z,60.88
2018-02-15T23:58:47.686Z,56.22
